Time;durP1;ratioP1;P1;durP2;ratioP2;P2;SDS_P1;SDS_P2;PMS_P1;PMS_P2;Temp;Humidity;BMP_temperature;BMP_pressure;BME280_temperature;BME280_humidity;BME280_pressure;Samples;Min_cycle;Max_cycle;Signal;HPM_P1;HPM_P2
2024/01/02 00:00:51;;;;;;;4.40;4.10;;;;;;;189.72;100.00;56616.03;5032324;28;20214;-70
2024/01/02 00:03:18;;;;;;;3.38;3.08;;;;;;;23.26;100.00;56616.03;5029837;28;20338;-69
2024/01/02 00:05:45;;;;;;;3.85;3.40;;;;;;;33.65;100.00;57695.25;5032340;28;20302;-69
2024/01/02 00:08:11;;;;;;;3.17;2.88;;;;;;;64.84;100.00;56616.03;5031425;28;20298;-69
2024/01/02 00:10:38;;;;;;;2.50;2.30;;;;;;;-142.91;100.00;56616.03;5034705;28;20215;-70
2024/01/02 00:13:04;;;;;;;2.80;2.60;;;;;;;189.72;100.00;56616.03;5029164;28;20240;-69
2024/01/02 00:15:31;;;;;;;3.90;2.60;;;;;;;189.72;100.00;56616.03;5031158;28;20756;-69
2024/01/02 00:17:59;;;;;;;2.60;2.40;;;;;;;189.72;100.00;56616.03;5032918;28;20302;-68
2024/01/02 00:20:26;;;;;;;2.30;2.20;;;;;;;189.72;100.00;56616.03;5029891;28;20315;-70
2024/01/02 00:22:52;;;;;;;2.78;2.60;;;;;;;106.45;100.00;56616.03;5027791;28;20311;-70
2024/01/02 00:25:19;;;;;;;2.95;2.40;;;;;;;-142.91;100.00;56616.03;5033897;28;20313;-68
2024/01/02 00:27:45;;;;;;;2.80;2.60;;;;;;;189.72;100.00;56616.03;5036287;28;20230;-70
2024/01/02 00:30:13;;;;;;;2.67;2.47;;;;;;;189.72;100.00;56616.03;5036489;28;20303;-70
2024/01/02 00:32:39;;;;;;;2.58;2.47;;;;;;;-142.91;100.00;56616.03;5041921;28;20266;-71
2024/01/02 00:35:08;;;;;;;3.47;2.67;;;;;;;;;;5025017;28;20303;-69
2024/01/02 00:37:34;;;;;;;2.83;2.63;;;;;;;-142.91;100.00;56616.03;5037154;28;20282;-70
2024/01/02 00:40:01;;;;;;;2.58;2.38;;;;;;;23.25;100.00;56616.03;5037162;28;20239;-69
2024/01/02 00:42:28;;;;;;;2.80;2.60;;;;;;;-142.91;100.00;56616.03;5034095;28;20485;-70
2024/01/02 00:44:54;;;;;;;3.08;2.45;;;;;;;-142.91;100.00;56616.03;5032617;28;20231;-71
2024/01/02 00:47:21;;;;;;;2.92;2.63;;;;;;;106.45;100.00;56616.03;5037059;28;20641;-71
2024/01/02 00:49:48;;;;;;;2.60;2.42;;;;;;;;;;5035609;28;20289;-73
2024/01/02 00:52:15;;;;;;;3.65;3.13;;;;;;;;;;5039019;28;20309;-73
2024/01/02 00:54:42;;;;;;;2.97;2.78;;;;;;;-142.91;100.00;56616.03;5032618;28;20240;-72
2024/01/02 00:57:09;;;;;;;2.78;2.53;;;;;;;-142.91;100.00;56616.03;5037767;28;20286;-70
2024/01/02 00:59:35;;;;;;;3.80;2.83;;;;;;;23.26;100.00;56616.03;5036472;28;20199;-70
2024/01/02 01:02:02;;;;;;;2.53;2.30;;;;;;;-142.91;100.00;56616.03;5035908;28;20204;-70
2024/01/02 01:04:28;;;;;;;3.15;2.60;;;;;;;-142.91;100.00;56616.03;5033412;28;20294;-71
2024/01/02 01:06:55;;;;;;;3.30;3.00;;;;;;;-142.91;100.00;56616.03;5035392;28;20300;-68
2024/01/02 01:09:23;;;;;;;2.85;2.65;;;;;;;-142.91;100.00;56616.03;5032272;28;20695;-69
2024/01/02 01:11:50;;;;;;;3.15;2.58;;;;;;;25.85;100.00;56616.03;5035524;28;20290;-71
2024/01/02 01:14:16;;;;;;;2.85;2.65;;;;;;;-142.91;100.00;56616.03;5032254;28;20348;-71
2024/01/02 01:16:43;;;;;;;2.97;2.78;;;;;;;-142.91;100.00;56616.03;5038307;28;20239;-70
2024/01/02 01:19:10;;;;;;;2.92;2.72;;;;;;;-142.91;100.00;56616.03;5033106;28;21038;-70
2024/01/02 01:21:36;;;;;;;2.47;2.35;;;;;;;-142.91;100.00;56616.03;5031674;28;20262;-69
2024/01/02 01:24:03;;;;;;;2.85;2.67;;;;;;;-142.91;100.00;56616.03;5031259;28;20279;-70
2024/01/02 01:26:31;;;;;;;2.70;2.50;;;;;;;-142.91;100.00;56616.03;5036773;28;20207;-69
2024/01/02 01:28:58;;;;;;;2.92;2.70;;;;;;;189.72;100.00;56616.03;5034937;28;20227;-69
2024/01/02 01:31:25;;;;;;;2.88;2.67;;;;;;;-142.91;100.00;56616.03;5025892;28;20211;-70
2024/01/02 01:33:51;;;;;;;2.65;2.30;;;;;;;23.27;100.00;56616.03;5033452;28;20306;-70
2024/01/02 01:36:18;;;;;;;3.20;2.72;;;;;;;-142.91;100.00;56616.03;5042705;28;20302;-69
2024/01/02 01:38:44;;;;;;;3.05;2.85;;;;;;;189.72;100.00;56616.03;5034504;28;20235;-69
2024/01/02 01:41:11;;;;;;;2.40;2.20;;;;;;;-142.91;100.00;56616.03;5035489;28;20298;-68
2024/01/02 01:43:39;;;;;;;2.72;2.53;;;;;;;-142.91;100.00;56616.03;5035320;28;20242;-68
2024/01/02 01:46:06;;;;;;;2.58;2.45;;;;;;;-142.91;100.00;56616.03;5028259;28;20215;-69
2024/01/02 01:48:34;;;;;;;5.80;2.85;;;;;;;-142.91;100.00;56616.03;5030876;28;20226;-69
2024/01/02 01:51:01;;;;;;;2.75;2.60;;;;;;;-142.91;100.00;56616.03;5037872;28;20260;-69
2024/01/02 01:53:29;;;;;;;2.92;2.72;;;;;;;189.72;100.00;56616.03;5033854;28;20220;-69
2024/01/02 01:55:56;;;;;;;2.60;2.40;;;;;;;;;;5036327;28;20284;-70
2024/01/02 01:58:22;;;;;;;2.78;2.63;;;;;;;189.72;100.00;56616.03;5023942;28;20290;-71
2024/01/02 02:00:49;;;;;;;3.03;2.83;;;;;;;-142.91;100.00;56616.03;5029604;28;20319;-70
2024/01/02 02:03:18;;;;;;;3.17;2.97;;;;;;;-142.91;100.00;56616.03;5028019;28;20255;-69
2024/01/02 02:05:45;;;;;;;3.50;3.20;;;;;;;;;;5027541;28;20295;-69
2024/01/02 02:08:12;;;;;;;2.75;2.55;;;;;;;23.41;100.00;56616.03;5028148;28;20294;-69
2024/01/02 02:10:39;;;;;;;2.75;2.55;;;;;;;-142.91;100.00;56616.03;5036439;28;20289;-69
2024/01/02 02:13:05;;;;;;;2.90;2.70;;;;;;;44.04;100.00;56616.03;5030424;28;20353;-69
2024/01/02 02:15:34;;;;;;;2.92;2.70;;;;;;;-142.91;100.00;56616.03;5038289;28;20247;-68
2024/01/02 02:18:02;;;;;;;3.60;2.75;;;;;;;-142.91;100.00;56616.03;5034883;28;20269;-68
2024/01/02 02:20:28;;;;;;;3.38;3.00;;;;;;;-142.91;100.00;56616.03;5029385;28;20783;-68
2024/01/02 02:22:56;;;;;;;2.63;2.47;;;;;;;-142.91;100.00;56616.03;5029609;28;20798;-68
2024/01/02 02:25:23;;;;;;;3.90;3.38;;;;;;;-142.91;100.00;56616.03;5028899;28;20233;-70
2024/01/02 02:27:50;;;;;;;4.68;4.28;;;;;;;-142.91;100.00;56616.03;5030656;28;20204;-68
2024/01/02 02:30:17;;;;;;;5.38;4.88;;;;;;;-142.91;100.00;56616.03;5033767;28;20231;-68
2024/01/02 02:32:44;;;;;;;5.15;4.75;;;;;;;-142.91;100.00;56616.03;5035743;28;20293;-68
2024/01/02 02:35:10;;;;;;;6.93;5.38;;;;;;;23.26;100.00;56616.03;5037177;28;20242;-70
2024/01/02 02:37:37;;;;;;;8.00;7.03;;;;;;;-142.91;100.00;56616.03;5031262;28;20250;-68
2024/01/02 02:40:07;;;;;;;8.25;7.30;;;;;;;-142.91;100.00;56616.03;5030342;28;20357;-69
2024/01/02 02:42:33;;;;;;;8.23;6.88;;;;;;;;;;5034189;28;20233;-69
2024/01/02 02:45:00;;;;;;;11.13;7.55;;;;;;;;;;5029747;28;21529;-69
2024/01/02 02:47:27;;;;;;;9.25;7.13;;;;;;;24.55;100.00;56616.03;5032271;28;20294;-69
2024/01/02 02:49:53;;;;;;;7.20;6.53;;;;;;;-142.91;100.00;56616.03;5039315;28;20233;-69
2024/01/02 02:52:20;;;;;;;8.95;6.88;;;;;;;-142.91;100.00;56616.03;5031101;28;20218;-69
2024/01/02 02:54:47;;;;;;;7.88;6.82;;;;;;;-142.91;100.00;56616.03;5035687;28;20311;-69
2024/01/02 02:57:15;;;;;;;8.05;6.40;;;;;;;-142.91;100.00;56616.03;5028140;28;20238;-70
2024/01/02 02:59:41;;;;;;;7.97;5.72;;;;;;;-142.91;100.00;56616.03;5030865;28;20227;-69
2024/01/02 03:02:08;;;;;;;6.05;4.68;;;;;;;-142.91;100.00;56616.03;5029576;28;20235;-70
2024/01/02 03:04:35;;;;;;;4.90;4.45;;;;;;;-142.91;100.00;56616.03;5032220;28;20286;-69
2024/01/02 03:07:01;;;;;;;7.10;4.75;;;;;;;-142.91;100.00;56616.03;5033881;28;20259;-68
2024/01/02 03:09:28;;;;;;;4.40;4.07;;;;;;;-142.91;100.00;56616.03;5029448;28;20636;-69
2024/01/02 03:11:55;;;;;;;5.70;3.78;;;;;;;-142.91;100.00;56616.03;5039866;28;20207;-69
2024/01/02 03:14:23;;;;;;;3.95;3.65;;;;;;;-142.91;100.00;56616.03;5037505;28;20226;-70
2024/01/02 03:16:49;;;;;;;2.53;2.38;;;;;;;-142.91;100.00;56616.03;5031566;28;20235;-69
2024/01/02 03:19:16;;;;;;;2.40;2.30;;;;;;;-142.91;100.00;56616.03;5024764;28;20242;-69
2024/01/02 03:21:43;;;;;;;3.38;2.55;;;;;;;-142.91;100.00;56616.03;5035069;28;20226;-70
2024/01/02 03:24:09;;;;;;;2.70;2.50;;;;;;;-142.91;100.00;56616.03;5036787;28;20342;-69
2024/01/02 03:26:36;;;;;;;2.65;2.45;;;;;;;-142.91;100.00;56616.03;5031725;28;20235;-69
2024/01/02 03:29:03;;;;;;;2.15;2.05;;;;;;;-142.91;100.00;56616.03;5040261;28;20254;-69
2024/01/02 03:31:31;;;;;;;3.05;2.85;;;;;;;-142.91;100.00;56616.03;5035752;28;20205;-69
2024/01/02 03:33:57;;;;;;;2.13;2.03;;;;;;;-142.91;100.00;56616.03;5034549;28;20258;-68
2024/01/02 03:36:24;;;;;;;2.58;2.47;;;;;;;-142.91;100.00;56616.03;5034400;28;20266;-70
2024/01/02 03:38:52;;;;;;;2.35;2.25;;;;;;;189.72;100.00;56616.03;5035542;28;20294;-68
2024/01/02 03:41:19;;;;;;;2.33;2.22;;;;;;;64.84;100.00;56616.03;5030032;28;20664;-69
2024/01/02 03:43:46;;;;;;;2.42;2.22;;;;;;;-142.91;100.00;56616.03;5031153;28;20235;-69
2024/01/02 03:46:14;;;;;;;2.78;2.58;;;;;;;-142.91;100.00;56616.03;5035779;28;20231;-69
2024/01/02 03:48:42;;;;;;;2.03;1.92;;;;;;;-142.91;100.00;56616.03;5036663;28;20206;-68
2024/01/02 03:51:08;;;;;;;2.75;2.55;;;;;;;-142.91;100.00;56616.03;5038522;28;20234;-68
2024/01/02 03:53:35;;;;;;;2.70;2.50;;;;;;;-142.91;100.00;56616.03;5032556;28;20263;-68
2024/01/02 03:56:02;;;;;;;2.40;2.20;;;;;;;-142.91;100.00;56616.03;5034850;28;20386;-69
2024/01/02 03:58:30;;;;;;;2.38;2.17;;;;;;;189.72;100.00;56616.03;5033896;28;20656;-68
2024/01/02 04:00:57;;;;;;;2.80;2.60;;;;;;;23.26;100.00;56616.03;5039069;28;20280;-69
2024/01/02 04:03:24;;;;;;;2.78;2.58;;;;;;;-142.91;100.00;56616.03;5033214;28;20680;-69
2024/01/02 04:05:52;;;;;;;2.70;2.50;;;;;;;-142.91;100.00;56616.03;5036458;28;20235;-69
2024/01/02 04:08:19;;;;;;;3.10;2.80;;;;;;;;;;5034686;28;20235;-69
2024/01/02 04:10:45;;;;;;;3.38;3.08;;;;;;;-142.91;100.00;56616.03;5033771;28;20282;-69
2024/01/02 04:13:12;;;;;;;3.80;2.83;;;;;;;-142.91;100.00;56616.03;5030395;28;20308;-68
2024/01/02 04:15:39;;;;;;;3.00;2.80;;;;;;;-142.91;100.00;56616.03;5030225;28;20200;-69
2024/01/02 04:18:06;;;;;;;3.10;2.83;;;;;;;-142.91;100.00;56616.03;5034338;28;20259;-70
2024/01/02 04:20:33;;;;;;;3.05;2.80;;;;;;;-142.91;100.00;56616.03;5033488;28;20763;-69
2024/01/02 04:23:01;;;;;;;3.72;2.95;;;;;;;-142.91;100.00;56616.03;5039900;28;20234;-70
2024/01/02 04:25:27;;;;;;;3.80;3.50;;;;;;;-142.91;100.00;56616.03;5036622;28;20239;-69
2024/01/02 04:27:56;;;;;;;3.42;3.13;;;;;;;-142.91;100.00;56616.03;5032070;28;20707;-69
2024/01/02 04:30:22;;;;;;;4.05;3.08;;;;;;;-142.91;100.00;56616.03;5031811;28;20250;-70
2024/01/02 04:32:49;;;;;;;3.28;3.00;;;;;;;-142.91;100.00;56616.03;5035255;28;20243;-69
2024/01/02 04:35:16;;;;;;;3.13;2.83;;;;;;;-142.91;100.00;56616.03;5030574;28;20262;-70
2024/01/02 04:37:44;;;;;;;2.75;2.55;;;;;;;-142.91;100.00;56616.03;5034427;28;20231;-69
2024/01/02 04:40:12;;;;;;;3.00;2.80;;;;;;;-142.91;100.00;56616.03;5029168;28;20702;-69
2024/01/02 04:42:40;;;;;;;2.25;2.15;;;;;;;-142.91;100.00;56616.03;5029605;28;20250;-68
2024/01/02 04:45:08;;;;;;;3.05;2.80;;;;;;;-142.91;100.00;56616.03;5031625;28;20247;-70
2024/01/02 04:47:35;;;;;;;2.72;2.53;;;;;;;-142.91;100.00;56616.03;5032337;28;20219;-70
2024/01/02 04:50:04;;;;;;;2.35;2.25;;;;;;;-142.91;100.00;56616.03;5032274;28;20742;-69
2024/01/02 04:52:31;;;;;;;2.33;2.22;;;;;;;-142.91;100.00;56616.03;5029936;28;20207;-69
2024/01/02 04:54:59;;;;;;;2.22;2.13;;;;;;;-142.91;100.00;56616.03;5028879;28;20224;-69
2024/01/02 04:57:27;;;;;;;2.17;2.08;;;;;;;-142.91;100.00;56616.03;5034561;28;20570;-69
2024/01/02 04:59:53;;;;;;;2.33;2.22;;;;;;;-142.91;100.00;56616.03;5028466;28;20232;-68
2024/01/02 05:02:22;;;;;;;1.80;1.70;;;;;;;-142.91;100.00;56616.03;5036980;28;20291;-68
2024/01/02 05:04:49;;;;;;;1.75;1.65;;;;;;;-142.91;100.00;56616.03;5032270;28;20203;-69
2024/01/02 05:07:16;;;;;;;1.83;1.73;;;;;;;-142.91;100.00;56616.03;5032078;28;20203;-69
2024/01/02 05:09:42;;;;;;;2.10;2.00;;;;;;;-142.91;100.00;56616.03;5026718;28;20235;-70
2024/01/02 05:12:09;;;;;;;2.47;1.55;;;;;;;-142.91;100.00;56616.03;5029661;28;20517;-70
2024/01/02 05:14:37;;;;;;;1.75;1.65;;;;;;;-142.91;100.00;56616.03;5024596;28;20776;-70
2024/01/02 05:17:05;;;;;;;1.52;1.42;;;;;;;-142.91;100.00;56616.03;5029335;28;20290;-70
2024/01/02 05:19:31;;;;;;;2.00;1.50;;;;;;;-142.91;100.00;56616.03;5037462;28;20299;-69
2024/01/02 05:21:58;;;;;;;5.13;1.40;;;;;;;-142.91;100.00;56616.03;5034463;28;20321;-69
2024/01/02 05:24:24;;;;;;;1.27;1.15;;;;;;;-142.91;100.00;56616.03;5035435;28;20308;-70
2024/01/02 05:26:51;;;;;;;1.30;1.30;;;;;;;-142.91;100.00;56616.03;5029590;28;20247;-71
2024/01/02 05:29:18;;;;;;;1.42;1.33;;;;;;;-142.91;100.00;56616.03;5038849;28;20207;-70
2024/01/02 05:31:46;;;;;;;2.53;1.58;;;;;;;-142.91;100.00;56616.03;5038943;28;20238;-70
2024/01/02 05:34:13;;;;;;;1.15;1.15;;;;;;;-142.91;100.00;56616.03;5028432;28;20314;-70
2024/01/02 05:36:39;;;;;;;1.23;1.23;;;;;;;-142.91;100.00;56616.03;5036234;28;20250;-69
2024/01/02 05:39:07;;;;;;;1.10;1.10;;;;;;;-142.91;100.00;56616.03;5032276;28;20243;-70
2024/01/02 05:41:34;;;;;;;1.77;1.60;;;;;;;-142.91;100.00;56616.03;5030683;28;20206;-70
2024/01/02 05:44:01;;;;;;;1.42;1.23;;;;;;;23.25;100.00;56616.03;5032746;28;20678;-72
2024/01/02 05:46:27;;;;;;;1.20;1.20;;;;;;;-142.91;100.00;56616.03;5029925;28;20283;-69
2024/01/02 05:48:55;;;;;;;1.30;1.20;;;;;;;-142.91;100.00;56616.03;5024927;28;20243;-71
2024/01/02 05:51:22;;;;;;;2.15;1.50;;;;;;;-142.91;100.00;56616.03;5032287;28;20211;-71
2024/01/02 05:53:49;;;;;;;1.30;1.20;;;;;;;24.55;100.00;56616.03;5027780;28;20314;-71
2024/01/02 05:56:17;;;;;;;1.67;1.58;;;;;;;-142.91;100.00;56616.03;5025117;28;20622;-69
2024/01/02 05:58:43;;;;;;;1.00;1.00;;;;;;;-142.91;100.00;56616.03;5026769;28;20236;-69
2024/01/02 06:01:10;;;;;;;1.45;1.35;;;;;;;-142.91;100.00;56616.03;5026222;28;20245;-69
2024/01/02 06:03:37;;;;;;;1.25;1.25;;;;;;;-142.91;100.00;56616.03;5025958;28;20212;-68
2024/01/02 06:06:06;;;;;;;1.10;1.10;;;;;;;-142.91;100.00;56616.03;5032200;28;20208;-69
2024/01/02 06:08:32;;;;;;;1.50;1.40;;;;;;;-142.91;100.00;56616.03;5035869;28;20241;-69
2024/01/02 06:10:59;;;;;;;1.63;1.52;;;;;;;-142.91;100.00;56616.03;5033324;28;21105;-68
2024/01/02 06:13:26;;;;;;;1.65;1.55;;;;;;;-142.91;100.00;56616.03;5029596;28;20239;-68
2024/01/02 06:15:52;;;;;;;3.10;1.30;;;;;;;-142.91;100.00;56616.03;5039968;28;20311;-70
2024/01/02 06:18:19;;;;;;;1.20;1.20;;;;;;;-142.91;100.00;56616.03;5033554;28;20595;-70
2024/01/02 06:20:46;;;;;;;1.02;1.02;;;;;;;-142.91;100.00;56616.03;5034545;28;20262;-70
2024/01/02 06:23:14;;;;;;;1.27;1.17;;;;;;;-142.91;100.00;56616.03;5037698;28;20287;-71
2024/01/02 06:25:40;;;;;;;1.10;1.00;;;;;;;-142.91;100.00;56616.03;5035574;28;20202;-70
2024/01/02 06:28:07;;;;;;;1.40;1.30;;;;;;;-142.91;100.00;56616.03;5025885;28;20203;-70
2024/01/02 06:30:34;;;;;;;1.00;1.00;;;;;;;-142.91;100.00;56616.03;5032184;28;20685;-70
2024/01/02 06:33:00;;;;;;;1.23;1.17;;;;;;;-142.91;100.00;56616.03;5029641;28;20231;-69
2024/01/02 06:35:27;;;;;;;1.60;1.50;;;;;;;-142.91;100.00;56616.03;5031909;28;20783;-71
2024/01/02 06:37:53;;;;;;;0.85;0.85;;;;;;;;;;5034685;28;20290;-71
2024/01/02 06:40:21;;;;;;;0.88;0.88;;;;;;;23.25;100.00;56616.03;5030620;28;20234;-70
2024/01/02 06:42:48;;;;;;;1.40;1.00;;;;;;;23.25;100.00;56616.03;5033576;28;20257;-69
2024/01/02 06:45:15;;;;;;;0.90;0.90;;;;;;;-142.91;100.00;56616.03;5036645;28;20196;-70
2024/01/02 06:47:41;;;;;;;0.95;0.95;;;;;;;-142.91;100.00;56616.03;5037874;28;20295;-69
2024/01/02 06:50:08;;;;;;;1.15;0.77;;;;;;;-142.91;100.00;56616.03;5035231;28;20245;-69
2024/01/02 06:52:35;;;;;;;0.95;0.95;;;;;;;-142.91;100.00;56616.03;5031282;28;20231;-69
2024/01/02 06:55:04;;;;;;;1.23;1.23;;;;;;;-142.91;100.00;56616.03;5035642;28;20237;-69
2024/01/02 06:57:32;;;;;;;1.10;1.10;;;;;;;-142.91;100.00;56616.03;5034969;28;20204;-70
2024/01/02 06:59:59;;;;;;;0.90;0.90;;;;;;;-142.91;100.00;56616.03;5031552;28;20548;-68
2024/01/02 07:02:25;;;;;;;2.20;1.88;;;;;;;-142.91;100.00;56616.03;5025347;28;20292;-69
2024/01/02 07:04:52;;;;;;;2.88;2.67;;;;;;;-142.91;100.00;56616.03;5037411;28;20286;-69
2024/01/02 07:07:18;;;;;;;5.30;4.68;;;;;;;-142.91;100.00;56616.03;5029396;28;20645;-70
2024/01/02 07:09:45;;;;;;;3.97;3.03;;;;;;;-142.91;100.00;56616.03;5030940;28;20239;-70
2024/01/02 07:12:12;;;;;;;2.92;1.70;;;;;;;-142.91;100.00;56616.03;5028973;28;20292;-69
2024/01/02 07:14:41;;;;;;;1.83;1.73;;;;;;;-142.91;100.00;56616.03;5034821;28;20330;-69
2024/01/02 07:17:08;;;;;;;1.40;1.30;;;;;;;-142.91;100.00;56616.03;5031074;28;20624;-69
2024/01/02 07:19:34;;;;;;;1.35;1.30;;;;;;;-142.91;100.00;56616.03;5034993;28;20679;-70
2024/01/02 07:22:02;;;;;;;2.03;1.40;;;;;;;-142.91;100.00;56616.03;5031645;28;20238;-68
2024/01/02 07:24:31;;;;;;;1.52;1.42;;;;;;;-142.91;100.00;56616.03;5033136;28;20196;-70
2024/01/02 07:26:57;;;;;;;4.03;1.02;;;;;;;-142.91;100.00;56616.03;5035052;28;20684;-69
2024/01/02 07:29:24;;;;;;;5.78;1.85;;;;;;;;;;5032668;28;20230;-69
2024/01/02 07:31:52;;;;;;;1.48;1.35;;;;;;;-142.91;100.00;56616.03;5033465;28;20206;-71
2024/01/02 07:34:18;;;;;;;0.75;0.60;;;;;;;-142.91;100.00;56616.03;5029511;28;20208;-70
2024/01/02 07:36:45;;;;;;;1.70;1.20;;;;;;;-142.91;100.00;56616.03;5032992;28;20202;-69
2024/01/02 07:39:12;;;;;;;2.58;1.67;;;;;;;-142.91;100.00;56616.03;5034332;28;20291;-70
2024/01/02 07:41:38;;;;;;;1.10;1.10;;;;;;;-142.91;100.00;56616.03;5026915;28;20283;-70
2024/01/02 07:44:06;;;;;;;0.82;0.82;;;;;;;-142.91;100.00;56616.03;5029951;28;20297;-69
2024/01/02 07:46:33;;;;;;;2.63;1.95;;;;;;;-142.91;100.00;56616.03;5035326;28;20563;-69
2024/01/02 07:49:01;;;;;;;1.00;0.90;;;;;;;-142.91;100.00;56616.03;5027482;28;20307;-69
2024/01/02 07:51:28;;;;;;;0.73;0.73;;;;;;;-142.91;100.00;56616.03;5025014;28;20212;-70
2024/01/02 07:53:54;;;;;;;0.90;0.90;;;;;;;-142.91;100.00;56616.03;5034688;28;20291;-68
2024/01/02 07:56:21;;;;;;;0.70;0.70;;;;;;;-142.91;100.00;56616.03;5033917;28;20686;-70
2024/01/02 07:58:48;;;;;;;1.60;0.85;;;;;;;-142.91;100.00;56616.03;5031928;28;20200;-70
2024/01/02 08:01:17;;;;;;;1.17;0.77;;;;;;;-142.91;100.00;56616.03;5033340;28;20294;-71
2024/01/02 08:03:43;;;;;;;1.08;0.85;;;;;;;-142.91;100.00;56616.03;5030783;28;20254;-70
2024/01/02 08:06:11;;;;;;;1.17;0.75;;;;;;;-142.91;100.00;56616.03;5025031;28;20200;-70
2024/01/02 08:08:38;;;;;;;2.45;0.57;;;;;;;-142.91;100.00;56616.03;5030552;28;20203;-68
2024/01/02 08:11:05;;;;;;;0.70;0.70;;;;;;;-142.91;100.00;56616.03;5036219;28;20294;-70
2024/01/02 08:13:31;;;;;;;8.10;0.90;;;;;;;-142.91;100.00;56616.03;5034591;28;20203;-70
2024/01/02 08:15:59;;;;;;;1.75;0.90;;;;;;;-142.91;100.00;56616.03;5035046;28;20318;-69
2024/01/02 08:18:27;;;;;;;0.60;0.60;;;;;;;-142.91;100.00;56616.03;5027344;28;20286;-70
2024/01/02 08:20:54;;;;;;;0.73;0.73;;;;;;;-142.91;100.00;56616.03;5035366;28;20715;-69
2024/01/02 08:23:22;;;;;;;0.95;0.70;;;;;;;-142.91;100.00;56616.03;5034170;28;20290;-69
2024/01/02 08:25:49;;;;;;;0.63;0.63;;;;;;;-142.91;100.00;56616.03;5027921;28;20741;-70
2024/01/02 08:28:16;;;;;;;0.75;0.75;;;;;;;-142.91;100.00;56616.03;5036307;28;20208;-69
2024/01/02 08:30:43;;;;;;;1.10;1.00;;;;;;;-142.91;100.00;56616.03;5031210;28;20680;-68
2024/01/02 08:33:09;;;;;;;0.75;0.75;;;;;;;-142.91;100.00;56616.03;5035141;28;20199;-69
2024/01/02 08:35:36;;;;;;;0.60;0.60;;;;;;;-142.91;100.00;56616.03;5034483;28;20338;-69
2024/01/02 08:38:03;;;;;;;0.60;0.60;;;;;;;-142.91;100.00;56616.03;5028004;28;20677;-69
2024/01/02 08:40:31;;;;;;;0.52;0.38;;;;;;;-142.91;100.00;56616.03;5038363;28;20211;-69
2024/01/02 08:42:58;;;;;;;0.57;0.57;;;;;;;-142.91;100.00;56616.03;5034541;28;20235;-69
2024/01/02 08:45:25;;;;;;;2.47;0.60;;;;;;;-142.91;100.00;56616.03;5037055;28;20226;-69
2024/01/02 08:47:51;;;;;;;0.43;0.43;;;;;;;-142.91;100.00;56616.03;5034273;28;20216;-70
2024/01/02 08:50:18;;;;;;;0.50;0.50;;;;;;;-142.91;100.00;56616.03;5033354;28;20646;-69
2024/01/02 08:52:47;;;;;;;0.52;0.52;;;;;;;-142.91;100.00;56616.03;5035018;28;20286;-68
2024/01/02 08:55:14;;;;;;;0.73;0.60;;;;;;;-142.91;100.00;56616.03;5034327;28;20234;-70
2024/01/02 08:57:43;;;;;;;0.68;0.68;;;;;;;-142.91;100.00;56616.03;5032310;28;20663;-70
2024/01/02 09:00:14;;;;;;;0.68;0.68;;;;;;;-142.91;100.00;56616.03;5030378;28;20206;-70
2024/01/02 09:02:41;;;;;;;0.40;0.40;;;;;;;-142.91;100.00;56616.03;5032978;28;20196;-69
2024/01/02 09:05:09;;;;;;;0.50;0.50;;;;;;;-142.91;100.00;56616.03;5037828;28;20241;-69
2024/01/02 09:07:36;;;;;;;1.55;0.85;;;;;;;-142.91;100.00;56616.03;5034850;28;20227;-69
2024/01/02 09:10:03;;;;;;;2.50;0.70;;;;;;;-142.91;100.00;56616.03;5034076;28;20200;-70
2024/01/02 09:12:31;;;;;;;0.60;0.60;;;;;;;-142.91;100.00;56616.03;5028047;28;20702;-70
2024/01/02 09:14:59;;;;;;;0.57;0.50;;;;;;;-142.91;100.00;56616.03;5028870;28;20227;-70
2024/01/02 09:17:25;;;;;;;0.40;0.40;;;;;;;-142.91;100.00;56616.03;5033122;28;20301;-69
2024/01/02 09:19:52;;;;;;;0.40;0.40;;;;;;;-142.91;100.00;56616.03;5039440;28;20324;-70
2024/01/02 09:22:19;;;;;;;0.40;0.40;;;;;;;-142.91;100.00;56616.03;5033322;28;20231;-72
2024/01/02 09:24:49;;;;;;;1.17;0.57;;;;;;;-142.91;100.00;56616.03;5032249;28;20290;-69
2024/01/02 09:27:17;;;;;;;0.70;0.70;;;;;;;-142.91;100.00;56616.03;5033984;28;20231;-70
2024/01/02 09:29:44;;;;;;;1.70;0.70;;;;;;;-142.91;100.00;56616.03;5036120;28;20235;-69
2024/01/02 09:32:12;;;;;;;1.17;0.88;;;;;;;-142.91;100.00;56616.03;5036751;28;20230;-69
2024/01/02 09:34:41;;;;;;;1.20;1.10;;;;;;;23.25;100.00;56616.03;5035833;28;20298;-70
2024/01/02 09:37:07;;;;;;;0.80;0.80;;;;;;;-142.91;100.00;56616.03;5031396;28;20291;-71
2024/01/02 09:39:34;;;;;;;1.02;0.85;;;;;;;-142.91;100.00;56616.03;5036754;28;20232;-70
2024/01/02 09:42:16;;;;;;;0.73;0.70;;;;;;;-142.91;100.00;56616.03;5038805;28;20246;-70
2024/01/02 09:44:57;;;;;;;0.93;0.93;;;;;;;-142.91;100.00;56616.03;5035455;28;20291;-70
2024/01/02 09:47:44;;;;;;;0.80;0.80;;;;;;;-142.91;100.00;56616.03;5028460;28;20712;-70
2024/01/02 09:50:13;;;;;;;0.90;0.90;;;;;;;-142.91;100.00;56616.03;5025648;28;20242;-69
2024/01/02 09:52:58;;;;;;;1.08;0.70;;;;;;;-142.91;100.00;56616.03;5034330;28;20210;-70
2024/01/02 09:55:30;;;;;;;1.25;1.05;;;;;;;-142.91;100.00;56616.03;5030076;28;20600;-69
2024/01/02 09:58:11;;;;;;;0.70;0.70;;;;;;;-142.91;100.00;56616.03;5032582;28;20226;-71
2024/01/02 10:00:50;;;;;;;0.95;0.95;;;;;;;-142.91;100.00;56616.03;5024365;28;20234;-69
2024/01/02 10:03:46;;;;;;;1.90;0.82;;;;;;;-142.91;100.00;56616.03;5015567;28;20269;-70
2024/01/02 10:06:41;;;;;;;0.90;0.82;;;;;;;-142.91;100.00;56616.03;5024493;28;20693;-69
2024/01/02 10:09:32;;;;;;;2.13;0.90;;;;;;;-142.91;100.00;56616.03;5022756;28;20290;-70
2024/01/02 10:12:08;;;;;;;2.28;0.90;;;;;;;-142.91;100.00;56616.03;5029379;28;20294;-69
2024/01/02 10:14:44;;;;;;;1.40;1.30;;;;;;;-142.91;100.00;56616.03;5029482;28;20507;-69
2024/01/02 10:17:25;;;;;;;1.10;1.10;;;;;;;-142.91;100.00;56616.03;5033565;28;20305;-68
2024/01/02 10:20:03;;;;;;;2.25;1.42;;;;;;;-142.91;100.00;56616.03;5024910;28;20204;-69
2024/01/02 10:22:32;;;;;;;1.17;1.17;;;;;;;-142.91;100.00;56616.03;5030799;28;20664;-69
2024/01/02 10:25:05;;;;;;;1.20;1.15;;;;;;;-142.91;100.00;56616.03;5021917;28;20764;-68
2024/01/02 10:27:42;;;;;;;1.30;1.20;;;;;;;-142.91;100.00;56616.03;5030545;28;20208;-70
2024/01/02 10:30:12;;;;;;;1.17;1.17;;;;;;;-142.91;100.00;56616.03;5033064;28;20237;-70
2024/01/02 10:32:45;;;;;;;1.15;1.15;;;;;;;-142.91;100.00;56616.03;5030367;28;20213;-70
2024/01/02 10:35:19;;;;;;;3.35;1.83;;;;;;;-142.91;100.00;56616.03;5029804;28;20286;-71
2024/01/02 10:37:57;;;;;;;1.92;1.23;;;;;;;-142.91;100.00;56616.03;5031872;28;20235;-70
2024/01/02 10:40:25;;;;;;;1.70;1.60;;;;;;;-142.91;100.00;56616.03;5022890;28;20613;-69
2024/01/02 10:43:06;;;;;;;1.65;1.50;;;;;;;-142.91;100.00;56616.03;5029899;28;20287;-72
2024/01/02 10:45:37;;;;;;;1.23;1.13;;;;;;;-142.91;100.00;56616.03;5026647;28;20206;-72
2024/01/02 10:48:24;;;;;;;2.55;1.48;;;;;;;-142.91;100.00;56616.03;5027236;28;20348;-72
2024/01/02 10:50:58;;;;;;;1.40;1.30;;;;;;;-142.91;100.00;56616.03;5026857;28;20286;-71
2024/01/02 10:53:39;;;;;;;1.25;1.00;;;;;;;-142.91;100.00;56616.03;5033602;28;20199;-69
2024/01/02 10:56:13;;;;;;;1.40;1.30;;;;;;;-142.91;100.00;56616.03;5028618;28;20314;-70
2024/01/02 10:58:52;;;;;;;1.38;1.25;;;;;;;-142.91;100.00;56616.03;5025552;28;20205;-68
2024/01/02 11:01:22;;;;;;;1.00;1.00;;;;;;;-142.91;100.00;56616.03;5034721;28;20293;-68
2024/01/02 11:03:58;;;;;;;0.90;0.90;;;;;;;-142.91;100.00;56616.03;5028118;28;20282;-72
2024/01/02 11:06:34;;;;;;;1.00;0.90;;;;;;;-142.91;100.00;56616.03;5031643;28;20230;-72
2024/01/02 11:09:07;;;;;;;1.00;0.98;;;;;;;-142.91;100.00;56616.03;5032415;28;20341;-71
2024/01/02 11:11:37;;;;;;;1.30;1.20;;;;;;;-142.91;100.00;56616.03;5029993;28;20235;-72
2024/01/02 11:14:06;;;;;;;2.45;1.33;;;;;;;-142.91;100.00;56616.03;5032519;28;20282;-70
2024/01/02 11:16:35;;;;;;;2.30;1.95;;;;;;;-142.91;100.00;56616.03;5027153;28;20224;-73
2024/01/02 11:19:04;;;;;;;1.50;1.40;;;;;;;23.25;100.00;56616.03;5029708;28;20223;-70
2024/01/02 11:21:39;;;;;;;3.75;2.08;;;;;;;-142.91;100.00;56616.03;5029166;28;20292;-70